Time;durP1;ratioP1;P1;durP2;ratioP2;P2;SDS_P1;SDS_P2;PMS_P1;PMS_P2;Temp;Humidity;BMP_temperature;BMP_pressure;BME280_temperature;BME280_humidity;BME280_pressure;Samples;Min_cycle;Max_cycle;Signal;HPM_P1;HPM_P2
2022/06/17 00:01:34;;;;;;;7.90;7.00;;;;;;;14.77;75.61;93766.09;5032352;28;20069;-40
2022/06/17 00:04:00;;;;;;;8.35;7.53;;;;;;;14.77;75.48;93785.53;5033332;28;20099;-40
2022/06/17 00:06:39;;;;;;;8.07;7.00;;;;;;;14.57;75.54;93783.13;5033000;28;20379;-40
2022/06/17 00:09:06;;;;;;;7.45;6.70;;;;;;;14.44;75.78;93779.31;5033129;28;20048;-39
2022/06/17 00:11:34;;;;;;;9.73;6.28;;;;;;;14.44;75.73;93779.31;5032017;28;20057;-40
2022/06/17 00:13:59;;;;;;;7.95;7.15;;;;;;;14.57;75.37;93774.78;5032309;28;20041;-40
2022/06/17 00:16:26;;;;;;;10.30;7.50;;;;;;;14.42;75.48;93775.63;5032810;28;20021;-40
2022/06/17 00:18:52;;;;;;;6.82;6.15;;;;;;;14.49;75.35;93777.59;5032886;28;20087;-40
2022/06/17 00:21:30;;;;;;;9.02;6.88;;;;;;;14.52;74.88;93779.25;5031970;28;20403;-38
2022/06/17 00:23:55;;;;;;;8.02;7.18;;;;;;;14.54;75.24;93776.66;5023809;28;20568;-37
2022/06/17 00:26:21;;;;;;;7.38;6.68;;;;;;;14.43;75.83;93780.63;5022847;28;20017;-37
2022/06/17 00:28:48;;;;;;;7.75;5.75;;;;;;;14.53;75.45;93782.78;5032013;28;20491;-40
2022/06/17 00:31:14;;;;;;;12.23;6.78;;;;;;;14.19;75.79;93769.44;5031455;28;20082;-40
2022/06/17 00:33:40;;;;;;;6.43;5.82;;;;;;;14.24;76.23;93777.56;5032523;28;20036;-40
2022/06/17 00:36:06;;;;;;;6.95;5.65;;;;;;;14.21;75.33;93781.47;5032537;28;20021;-37
2022/06/17 00:38:33;;;;;;;8.95;6.65;;;;;;;14.28;75.41;93777.16;5031569;28;20022;-37
2022/06/17 00:41:09;;;;;;;7.80;6.10;;;;;;;14.19;75.85;93777.78;5032658;28;20025;-37
2022/06/17 00:43:36;;;;;;;9.48;6.95;;;;;;;14.14;75.57;93773.91;5031210;28;20024;-37
2022/06/17 00:46:08;;;;;;;8.70;6.45;;;;;;;14.00;75.91;93769.19;5032231;28;20029;-37
2022/06/17 00:48:38;;;;;;;7.28;5.75;;;;;;;14.12;75.46;93768.19;5032228;28;20529;-37
2022/06/17 00:51:19;;;;;;;9.05;5.70;;;;;;;14.13;75.37;93771.72;5031160;28;20076;-37
2022/06/17 00:53:54;;;;;;;6.55;5.95;;;;;;;14.02;76.59;93763.81;5030818;28;20050;-37
2022/06/17 00:56:25;;;;;;;6.28;5.57;;;;;;;14.05;76.72;93765.47;5031000;28;20045;-37
2022/06/17 00:59:08;;;;;;;6.45;5.78;;;;;;;14.00;76.66;93771.97;5032114;28;20026;-37
2022/06/17 01:01:46;;;;;;;8.00;5.72;;;;;;;13.84;76.84;93773.38;5032382;28;20029;-37
2022/06/17 01:04:16;;;;;;;6.40;5.80;;;;;;;13.94;75.76;93771.44;5031096;28;20021;-37
2022/06/17 01:06:46;;;;;;;8.45;5.47;;;;;;;13.85;74.97;93758.16;5030657;28;20022;-37
2022/06/17 01:12:20;;;;;;;8.30;6.10;;;;;;;13.59;76.65;93767.72;5032140;28;20060;-37
2022/06/17 01:14:46;;;;;;;5.97;5.47;;;;;;;13.54;77.01;93763.84;5030774;28;20019;-37
2022/06/17 01:17:14;;;;;;;6.72;5.63;;;;;;;13.64;76.60;93752.91;5031983;28;20047;-37
2022/06/17 01:19:48;;;;;;;6.37;5.70;;;;;;;13.67;77.03;93760.09;5031817;28;20061;-37
2022/06/17 01:22:20;;;;;;;8.07;5.47;;;;;;;13.67;76.45;93762.88;5030472;28;20056;-37
2022/06/17 01:24:46;;;;;;;10.43;5.03;;;;;;;13.60;75.41;93756.06;5031530;28;20399;-37
2022/06/17 01:27:14;;;;;;;6.43;5.25;;;;;;;13.66;74.83;93758.63;5030334;28;20021;-37
2022/06/17 01:29:40;;;;;;;6.63;4.93;;;;;;;13.66;74.93;93756.56;5030573;28;20052;-39
2022/06/17 01:32:06;;;;;;;5.63;5.13;;;;;;;13.68;74.95;93747.72;5031758;28;20507;-39
2022/06/17 01:34:32;;;;;;;7.00;5.25;;;;;;;13.65;75.41;93754.38;5031301;28;20018;-39
2022/06/17 01:36:58;;;;;;;7.03;5.63;;;;;;;13.42;76.30;93746.16;5031655;28;20082;-39
2022/06/17 01:39:23;;;;;;;9.05;6.18;;;;;;;13.55;75.80;93747.94;5031277;28;20032;-39
2022/06/17 01:41:49;;;;;;;6.13;5.53;;;;;;;13.53;75.44;93740.19;5030633;28;20072;-39
2022/06/17 01:44:21;;;;;;;7.20;6.47;;;;;;;13.32;76.91;93742.47;5031229;28;20021;-39
2022/06/17 01:46:51;;;;;;;6.53;5.35;;;;;;;13.32;76.44;93736.22;5031392;28;20025;-39
2022/06/17 01:49:41;;;;;;;5.63;4.90;;;;;;;13.35;75.94;93730.28;5031042;28;20437;-39
2022/06/17 01:52:28;;;;;;;5.97;5.07;;;;;;;13.20;75.94;93737.91;5019926;28;20479;-39
2022/06/17 01:55:03;;;;;;;5.97;5.35;;;;;;;13.24;75.85;93741.03;5011215;28;20430;-40
2022/06/17 01:57:35;;;;;;;8.18;5.63;;;;;;;13.28;76.14;93728.25;5019239;28;20021;-39
2022/06/17 02:00:10;;;;;;;6.30;5.70;;;;;;;13.27;76.24;93737.16;5029742;28;20025;-39
2022/06/17 02:02:36;;;;;;;11.40;6.03;;;;;;;13.21;76.90;93737.34;5030228;28;20036;-39
2022/06/17 02:05:06;;;;;;;7.40;5.57;;;;;;;13.06;76.87;93731.81;5029604;28;20029;-39
2022/06/17 02:07:34;;;;;;;7.22;5.30;;;;;;;13.11;76.58;93738.47;5029687;28;20036;-39
2022/06/17 02:10:00;;;;;;;7.63;5.82;;;;;;;13.05;76.84;93740.72;5028109;28;20029;-39
2022/06/17 02:12:27;;;;;;;5.63;5.10;;;;;;;13.14;76.00;93740.88;5023050;28;20033;-39
2022/06/17 02:14:54;;;;;;;6.78;4.82;;;;;;;13.03;76.53;93746.03;5029739;28;20021;-39
2022/06/17 02:17:21;;;;;;;7.80;4.38;;;;;;;13.07;75.80;93751.97;5029318;28;20053;-39
2022/06/17 02:19:47;;;;;;;11.98;5.32;;;;;;;13.04;75.33;93750.31;5030815;28;20032;-39
2022/06/17 02:22:23;;;;;;;5.75;5.00;;;;;;;12.98;75.89;93753.25;5029707;28;20029;-39
2022/06/17 02:24:51;;;;;;;6.72;5.40;;;;;;;12.94;76.29;93750.13;5029123;28;20461;-39
2022/06/17 02:27:17;;;;;;;7.65;4.97;;;;;;;12.90;76.16;93755.31;5030634;28;20450;-39
2022/06/17 02:29:43;;;;;;;5.93;5.30;;;;;;;12.66;76.52;93731.69;5030621;28;20100;-39
2022/06/17 02:32:10;;;;;;;6.57;5.18;;;;;;;12.83;76.68;93753.28;5029439;28;20048;-39
2022/06/17 02:35:10;;;;;;;8.93;5.50;;;;;;;12.85;76.74;93759.00;5029239;28;20095;-39
2022/06/17 02:37:36;;;;;;;7.32;5.45;;;;;;;13.00;76.17;93764.53;5022097;28;20457;-38
2022/06/17 02:40:04;;;;;;;6.03;5.25;;;;;;;13.01;76.53;93757.69;5030195;28;20017;-39
2022/06/17 02:42:38;;;;;;;7.13;5.73;;;;;;;12.72;76.66;93731.50;5030304;28;20026;-38
2022/06/17 02:45:10;;;;;;;10.68;5.70;;;;;;;12.83;76.88;93756.06;5015717;28;20029;-39
2022/06/17 02:47:37;;;;;;;6.28;5.28;;;;;;;12.78;77.85;93752.19;5013520;28;20021;-39
2022/06/17 02:50:02;;;;;;;6.95;5.05;;;;;;;12.76;76.70;93742.94;5030193;28;20025;-38
2022/06/17 02:52:34;;;;;;;6.95;4.93;;;;;;;12.82;75.77;93747.00;5028346;28;20025;-39
2022/06/17 02:55:07;;;;;;;13.35;5.43;;;;;;;12.88;75.08;93753.09;5029999;28;20596;-38
2022/06/17 02:57:32;;;;;;;6.88;5.30;;;;;;;12.90;75.71;93752.53;5028904;28;20037;-39
2022/06/17 03:00:02;;;;;;;6.35;5.50;;;;;;;12.90;76.06;93752.53;5030297;28;20022;-38
2022/06/17 03:02:32;;;;;;;;;;;;;;;12.80;76.29;93754.38;5030489;28;20495;-39
2022/06/17 03:04:58;;;;;;;6.55;5.47;;;;;;;12.80;76.10;93757.16;5029030;28;19913;-38
2022/06/17 03:07:27;;;;;;;5.65;5.00;;;;;;;12.71;76.26;93757.75;5029115;28;20422;-38
2022/06/17 03:09:52;;;;;;;;;;;;;;;12.61;76.66;93754.03;5029380;28;20026;-38
2022/06/17 03:12:26;;;;;;;9.35;4.72;;;;;;;12.62;76.64;93750.72;5030158;28;19916;-38
2022/06/17 03:14:58;;;;;;;7.53;5.47;;;;;;;12.69;76.81;93754.78;5028159;28;20025;-38
2022/06/17 03:17:25;;;;;;;6.72;4.93;;;;;;;12.75;77.11;93760.88;5028961;28;20026;-39
2022/06/17 03:19:52;;;;;;;9.25;5.20;;;;;;;12.57;75.80;93753.66;5029484;28;20025;-38
2022/06/17 03:22:18;;;;;;;8.10;4.93;;;;;;;12.72;74.97;93768.25;5028922;28;20097;-38
2022/06/17 03:25:04;;;;;;;12.15;4.97;;;;;;;12.73;75.79;93766.94;5029949;28;20029;-38
2022/06/17 03:27:50;;;;;;;5.65;5.07;;;;;;;12.52;76.44;93769.19;5029795;28;20112;-38
2022/06/17 03:30:21;;;;;;;6.60;5.07;;;;;;;12.64;76.07;93775.09;5029791;28;20033;-38
2022/06/17 03:32:51;;;;;;;5.97;5.32;;;;;;;12.64;76.17;93767.53;5028812;28;20041;-39
2022/06/17 03:35:22;;;;;;;7.63;4.78;;;;;;;12.74;75.91;93770.47;5028533;28;20491;-39
2022/06/17 03:37:54;;;;;;;5.97;5.07;;;;;;;12.81;76.01;93772.50;5028469;28;20021;-39
2022/06/17 03:40:41;;;;;;;11.18;5.38;;;;;;;12.79;75.96;93766.78;5028449;28;20055;-39
2022/06/17 03:43:32;;;;;;;5.80;4.95;;;;;;;12.58;76.49;93758.66;5028583;28;20021;-39
2022/06/17 03:46:01;;;;;;;15.80;6.78;;;;;;;12.59;77.06;93754.59;5000988;28;20060;-39
2022/06/17 03:48:52;;;;;;;11.70;5.03;;;;;;;12.55;77.69;93759.03;5009881;28;20026;-39
2022/06/17 03:51:23;;;;;;;6.32;5.43;;;;;;;12.64;77.33;93761.25;5012940;28;20033;-39
2022/06/17 03:53:49;;;;;;;12.90;5.35;;;;;;;12.75;76.75;93767.16;5029297;28;20103;-39
2022/06/17 03:56:21;;;;;;;10.55;5.53;;;;;;;12.77;77.20;93753.50;5027627;28;20028;-39
2022/06/17 03:58:48;;;;;;;6.28;5.43;;;;;;;12.90;77.19;93758.09;5026602;28;20773;-39
2022/06/17 04:01:19;;;;;;;7.22;4.80;;;;;;;12.97;76.66;93760.13;5027316;28;20471;-39
2022/06/17 04:03:51;;;;;;;9.73;5.70;;;;;;;12.93;77.90;93759.72;5028910;28;20029;-39
2022/06/17 04:06:19;;;;;;;7.90;6.00;;;;;;;12.88;78.53;93766.97;5030104;28;20025;-39
2022/06/17 04:08:56;;;;;;;7.15;5.63;;;;;;;12.96;78.29;93772.47;5030339;28;20430;-39
2022/06/17 04:11:23;;;;;;;5.82;5.22;;;;;;;13.08;77.97;93772.88;5030116;28;20100;-39
2022/06/17 04:13:50;;;;;;;9.07;5.15;;;;;;;13.11;77.60;93780.81;5019607;28;20033;-39
2022/06/17 04:16:29;;;;;;;9.20;5.18;;;;;;;13.07;77.55;93776.91;5023562;28;20078;-39
2022/06/17 04:19:18;;;;;;;9.52;5.40;;;;;;;13.12;78.04;93779.53;5030242;28;20391;-39
2022/06/17 04:21:58;;;;;;;6.30;5.68;;;;;;;13.23;77.99;93781.88;5031267;28;20026;-39
2022/06/17 04:24:25;;;;;;;5.93;5.35;;;;;;;13.13;78.42;93780.22;5048072;28;20033;-40
2022/06/17 04:27:01;;;;;;;9.10;6.13;;;;;;;13.04;78.52;93737.16;5032864;28;20410;-39
2022/06/17 04:29:37;;;;;;;7.03;5.68;;;;;;;13.43;78.66;93785.69;5047951;28;20052;-39
2022/06/17 04:32:13;;;;;;;6.47;5.40;;;;;;;13.42;79.02;93779.44;5031662;28;20573;-39
2022/06/17 04:34:38;;;;;;;7.70;4.90;;;;;;;13.51;78.96;93783.66;5032751;28;20028;-39
2022/06/17 04:37:09;;;;;;;10.20;5.60;;;;;;;13.54;79.89;93783.28;5032369;28;20025;-39
2022/06/17 04:39:46;;;;;;;8.25;5.30;;;;;;;13.77;79.57;93780.41;5032746;28;20025;-39
2022/06/17 04:42:19;;;;;;;10.98;5.18;;;;;;;13.96;79.45;93782.72;5031501;28;20025;-39
2022/06/17 04:44:45;;;;;;;6.35;5.47;;;;;;;14.04;79.94;93780.66;5047708;28;20049;-39
2022/06/17 04:47:13;;;;;;;6.63;5.60;;;;;;;14.16;80.08;93781.69;5032246;28;20060;-39
2022/06/17 04:50:00;;;;;;;8.23;5.13;;;;;;;14.33;79.81;93784.59;5015966;28;20025;-40
2022/06/17 04:52:34;;;;;;;7.80;5.05;;;;;;;14.43;78.36;93777.84;5045613;28;20483;-39
2022/06/17 04:55:02;;;;;;;6.40;5.10;;;;;;;14.58;77.89;93774.22;5031998;28;20066;-39
2022/06/17 04:57:28;;;;;;;6.00;5.40;;;;;;;14.77;78.05;93782.06;5024416;28;20033;-39
2022/06/17 04:59:58;;;;;;;9.88;5.45;;;;;;;14.91;78.04;93775.63;5018542;28;20037;-38
2022/06/17 05:02:26;;;;;;;9.45;5.43;;;;;;;14.98;78.10;93777.59;5012141;28;20522;-39
2022/06/17 05:04:54;;;;;;;8.05;5.25;;;;;;;15.12;77.14;93770.41;5016608;28;20025;-38
2022/06/17 05:07:20;;;;;;;8.48;4.90;;;;;;;15.27;76.26;93774.38;5032127;28;20411;-40
2022/06/17 05:09:51;;;;;;;5.25;4.85;;;;;;;15.37;76.59;93758.47;5031907;28;20059;-40
2022/06/17 05:12:27;;;;;;;5.90;5.35;;;;;;;15.57;76.68;93765.72;5021714;28;20036;-39
2022/06/17 05:15:09;;;;;;;7.32;4.20;;;;;;;15.71;75.73;93764.78;5030629;28;20029;-38
2022/06/17 05:17:35;;;;;;;5.95;5.18;;;;;;;15.79;74.83;93765.44;5030590;28;20056;-39
2022/06/17 05:20:01;;;;;;;9.82;5.10;;;;;;;15.86;74.75;93769.44;5032015;28;20102;-39
2022/06/17 05:22:30;;;;;;;9.18;5.70;;;;;;;15.92;74.07;93767.88;5031713;28;20040;-38
2022/06/17 05:24:55;;;;;;;7.03;5.28;;;;;;;16.00;74.21;93780.97;5031903;28;20035;-39
2022/06/17 05:27:21;;;;;;;11.27;5.53;;;;;;;16.01;74.78;93772.03;5031551;28;20108;-38
2022/06/17 05:29:46;;;;;;;24.92;7.30;;;;;;;16.04;75.75;93776.47;5031636;28;20025;-38
2022/06/17 05:32:13;;;;;;;9.48;5.82;;;;;;;16.06;76.02;93767.50;5031639;28;20509;-39
2022/06/17 05:34:38;;;;;;;8.20;5.22;;;;;;;16.19;75.55;93764.38;5028984;28;20740;-38
2022/06/17 05:37:04;;;;;;;7.05;5.00;;;;;;;16.29;73.70;93760.31;5031678;28;20021;-38
2022/06/17 05:39:29;;;;;;;5.57;5.07;;;;;;;16.38;74.24;93761.69;5031319;28;20029;-38
2022/06/17 05:41:54;;;;;;;6.40;5.13;;;;;;;16.46;74.33;93757.47;5031297;28;20017;-39
2022/06/17 05:44:20;;;;;;;7.03;5.13;;;;;;;16.55;74.26;93756.06;5030094;28;20099;-39
2022/06/17 05:46:47;;;;;;;5.22;4.65;;;;;;;16.64;73.83;93744.22;5029211;28;20025;-39
2022/06/17 05:49:13;;;;;;;8.57;5.40;;;;;;;16.70;72.24;93739.09;5029126;28;20036;-39
2022/06/17 05:51:39;;;;;;;7.85;4.68;;;;;;;16.82;70.89;93736.50;5028907;28;20155;-38
2022/06/17 05:54:04;;;;;;;13.73;5.82;;;;;;;16.90;71.53;93737.09;5028103;28;20064;-40
2022/06/17 05:56:30;;;;;;;9.73;4.63;;;;;;;17.01;72.14;93739.34;5019098;28;20199;-40
2022/06/17 05:58:55;;;;;;;13.80;5.68;;;;;;;17.09;72.07;93739.91;5028709;28;20068;-40
2022/06/17 06:01:21;;;;;;;7.60;4.78;;;;;;;17.13;71.93;93737.47;5022265;28;20041;-40
2022/06/17 06:03:46;;;;;;;8.25;4.63;;;;;;;17.15;70.52;93741.09;5019717;28;20031;-40
2022/06/17 06:06:12;;;;;;;11.65;4.70;;;;;;;17.25;72.10;93739.09;5028902;28;20033;-40
2022/06/17 06:08:37;;;;;;;4.90;4.38;;;;;;;17.33;71.62;93733.34;5028540;28;20112;-39
2022/06/17 06:11:04;;;;;;;7.32;5.15;;;;;;;17.37;71.74;93737.19;5028761;28;20048;-39
2022/06/17 06:13:30;;;;;;;8.38;4.05;;;;;;;17.36;70.84;93734.97;5017766;28;20036;-39
2022/06/17 06:15:56;;;;;;;4.93;4.43;;;;;;;17.57;68.71;93745.59;5008825;28;20117;-39
2022/06/17 06:18:24;;;;;;;8.82;4.55;;;;;;;17.53;69.62;93745.28;5008775;28;20063;-39
2022/06/17 06:20:50;;;;;;;4.85;4.45;;;;;;;17.59;69.94;93742.94;5010661;28;20036;-40
2022/06/17 06:23:16;;;;;;;5.22;4.72;;;;;;;17.65;71.72;93727.34;5014154;28;20575;-40
2022/06/17 06:25:41;;;;;;;9.43;4.30;;;;;;;17.80;70.11;93738.22;5020405;28;20025;-40
2022/06/17 06:28:09;;;;;;;4.10;3.55;;;;;;;17.82;67.85;93716.03;5022339;28;20029;-39
2022/06/17 06:30:34;;;;;;;7.88;4.07;;;;;;;17.95;67.68;93726.03;5023462;28;20029;-40
2022/06/17 06:33:01;;;;;;;7.78;5.25;;;;;;;18.07;66.40;93719.22;5028540;28;20033;-40
2022/06/17 06:35:30;;;;;;;4.47;3.92;;;;;;;18.23;65.52;93716.09;5013758;28;20029;-40
2022/06/17 06:37:55;;;;;;;7.67;4.93;;;;;;;18.31;66.96;93720.19;5028072;28;20060;-40
2022/06/17 06:40:21;;;;;;;4.55;3.47;;;;;;;18.54;66.85;93725.28;5027834;28;20558;-40
2022/06/17 06:42:48;;;;;;;4.32;3.28;;;;;;;18.62;64.58;93721.00;5027869;28;20021;-40
2022/06/17 06:45:27;;;;;;;4.63;3.80;;;;;;;18.73;65.37;93714.03;5026483;28;20068;-40
2022/06/17 06:47:54;;;;;;;9.13;3.30;;;;;;;18.89;65.46;93715.09;5028194;28;20040;-40
2022/06/17 06:50:24;;;;;;;3.33;3.03;;;;;;;19.02;63.16;93717.38;5028071;28;20025;-40
2022/06/17 06:52:49;;;;;;;5.85;3.30;;;;;;;19.13;62.39;93716.72;5027313;28;20546;-40
2022/06/17 06:55:16;;;;;;;5.20;3.67;;;;;;;19.15;61.69;93710.53;5027817;28;20014;-40
2022/06/17 06:57:49;;;;;;;5.45;4.00;;;;;;;19.40;61.78;93711.56;5025685;28;20557;-39
2022/06/17 07:00:24;;;;;;;6.05;3.10;;;;;;;19.53;61.72;93707.50;5026361;28;20028;-40
2022/06/17 07:02:49;;;;;;;5.63;3.25;;;;;;;19.61;60.35;93714.34;5026758;28;20171;-38
2022/06/17 07:05:15;;;;;;;5.15;3.50;;;;;;;19.71;61.35;93716.34;5026739;28;20022;-41
2022/06/17 07:07:41;;;;;;;5.88;3.30;;;;;;;19.90;62.61;93705.72;5026672;28;20573;-40
2022/06/17 07:10:09;;;;;;;8.38;3.42;;;;;;;20.16;60.60;93709.44;5023315;28;20414;-40
2022/06/17 07:12:34;;;;;;;6.00;3.10;;;;;;;20.42;59.37;93697.78;5026049;28;20087;-44
2022/06/17 07:15:00;;;;;;;19.27;7.45;;;;;;;20.92;58.40;93700.09;5026298;28;20029;-42
2022/06/17 07:17:25;;;;;;;3.47;3.17;;;;;;;21.41;56.99;93706.53;5026460;28;20506;-40
2022/06/17 07:19:51;;;;;;;13.98;8.82;;;;;;;21.88;55.15;93701.53;5025690;28;20033;-41
2022/06/17 07:22:16;;;;;;;12.18;4.38;;;;;;;22.51;52.18;93700.06;5026192;28;20036;-40
2022/06/17 07:24:42;;;;;;;5.40;2.83;;;;;;;23.25;50.83;93694.84;5025590;28;20494;-40
2022/06/17 07:27:07;;;;;;;2.33;1.88;;;;;;;23.74;45.61;93698.75;5024771;28;20422;-41
2022/06/17 07:29:33;;;;;;;3.05;1.77;;;;;;;23.77;46.07;93691.13;5024166;28;20064;-42
2022/06/17 07:32:00;;;;;;;3.17;2.53;;;;;;;23.92;45.32;93705.28;5024302;28;20060;-42
2022/06/17 07:34:26;;;;;;;3.42;2.72;;;;;;;24.16;45.37;93713.47;5024183;28;20033;-40
2022/06/17 07:39:53;;;;;;;4.07;2.55;;;;;;;25.30;44.04;93707.47;5029125;28;20036;-41
2022/06/17 07:42:23;;;;;;;2.22;2.03;;;;;;;25.97;42.25;93699.72;5029606;28;20033;-41
2022/06/17 07:44:48;;;;;;;5.80;1.73;;;;;;;26.54;39.60;93697.06;5028553;28;20044;-41
2022/06/17 07:47:18;;;;;;;11.20;2.67;;;;;;;27.24;39.46;93701.13;5030331;28;20029;-41
2022/06/17 07:49:44;;;;;;;3.30;2.08;;;;;;;27.93;38.64;93696.47;5026313;28;20033;-42
2022/06/17 07:52:09;;;;;;;4.85;3.20;;;;;;;27.72;36.93;93700.75;5029978;28;20079;-42
2022/06/17 07:54:35;;;;;;;2.13;1.92;;;;;;;28.25;34.45;93691.16;5029538;28;20049;-41
2022/06/17 07:57:01;;;;;;;2.72;2.03;;;;;;;28.90;34.76;93686.09;5029835;28;20041;-41
2022/06/17 07:59:26;;;;;;;3.22;2.58;;;;;;;29.27;35.53;93690.03;5018264;28;20109;-41
2022/06/17 08:01:52;;;;;;;2.00;1.80;;;;;;;29.37;33.56;93693.16;5014388;28;20547;-41
2022/06/17 08:04:18;;;;;;;2.38;2.17;;;;;;;29.68;31.72;93676.25;5028803;28;20032;-42
2022/06/17 08:06:49;;;;;;;2.20;2.00;;;;;;;30.02;32.35;93692.78;5029475;28;20048;-40
2022/06/17 08:09:25;;;;;;;3.35;2.15;;;;;;;29.83;31.91;93686.63;5027408;28;20087;-42
2022/06/17 08:11:50;;;;;;;2.65;2.13;;;;;;;30.03;32.31;93686.41;5029085;28;20025;-42
2022/06/17 08:14:16;;;;;;;3.33;2.75;;;;;;;30.50;31.32;93685.44;5023606;28;20147;-41
2022/06/17 08:16:42;;;;;;;6.88;3.35;;;;;;;31.33;31.51;93683.03;5029075;28;20022;-42
2022/06/17 08:19:07;;;;;;;3.05;1.90;;;;;;;31.06;30.78;93691.72;5029657;28;20424;-42
2022/06/17 08:21:34;;;;;;;2.72;2.47;;;;;;;30.94;30.74;93685.75;5026695;28;20538;-43
2022/06/17 08:24:00;;;;;;;3.35;2.15;;;;;;;31.66;30.58;93681.56;5029430;28;20033;-47
2022/06/17 08:26:25;;;;;;;2.47;2.28;;;;;;;32.31;31.02;93682.72;5029087;28;20414;-45
2022/06/17 08:28:51;;;;;;;2.70;2.30;;;;;;;32.72;30.32;93682.72;5026439;28;20027;-45
2022/06/17 08:31:16;;;;;;;2.63;2.25;;;;;;;33.25;27.70;93684.16;5029707;28;20032;-43
2022/06/17 08:33:42;;;;;;;5.15;2.33;;;;;;;33.49;27.91;93681.59;5028038;28;20049;-44
2022/06/17 08:36:10;;;;;;;6.10;2.55;;;;;;;34.28;26.76;93683.19;5027858;28;20021;-43
2022/06/17 08:38:58;;;;;;;3.45;2.22;;;;;;;35.04;28.20;93688.13;5026058;28;20444;-43
2022/06/17 08:41:28;;;;;;;;;;;;;;;35.30;24.53;93678.94;5026812;28;20565;-45
2022/06/17 08:44:36;;;;;;;2.90;2.50;;;;;;;35.48;24.53;93676.16;5029019;28;19963;-45
2022/06/17 08:47:10;;;;;;;3.27;2.63;;;;;;;35.91;23.68;93663.34;4995307;28;20045;-43
2022/06/17 08:50:18;;;;;;;3.50;3.00;;;;;;;35.94;23.38;93669.84;5030580;28;20424;-44
2022/06/17 08:52:43;;;;;;;;;;;;;;;36.44;24.80;93659.19;5028459;28;20120;-46
2022/06/17 08:55:11;;;;;;;4.20;2.47;;;;;;;36.75;24.23;93662.03;5032560;28;20429;-47
2022/06/17 08:57:58;;;;;;;5.30;2.97;;;;;;;37.14;24.07;93660.56;5032221;28;20032;-44
2022/06/17 09:00:33;;;;;;;3.57;2.40;;;;;;;37.20;23.73;93660.53;5032176;28;20037;-45
2022/06/17 09:03:21;;;;;;;3.50;2.28;;;;;;;37.86;22.97;93659.56;5030984;28;20044;-44
2022/06/17 09:06:16;;;;;;;4.65;2.90;;;;;;;38.29;23.12;93651.41;5032339;28;20022;-45
2022/06/17 09:09:00;;;;;;;3.13;2.88;;;;;;;38.48;23.01;93653.44;5031062;28;20053;-46
2022/06/17 09:11:29;;;;;;;10.63;4.65;;;;;;;38.62;21.70;93641.03;5032242;28;20056;-45
2022/06/17 09:14:04;;;;;;;8.45;4.55;;;;;;;38.31;22.20;93652.13;5018151;28;20038;-45
2022/06/17 09:16:35;;;;;;;3.88;3.47;;;;;;;38.17;21.70;93643.53;5016953;28;20091;-45
2022/06/17 09:19:03;;;;;;;3.70;3.35;;;;;;;38.10;22.67;93644.31;5031022;28;20029;-44
2022/06/17 09:21:31;;;;;;;3.58;3.28;;;;;;;37.57;22.20;93653.22;5032067;28;20029;-43
2022/06/17 09:24:00;;;;;;;3.60;3.30;;;;;;;37.29;22.53;93655.47;5031691;28;20029;-45
2022/06/17 09:26:29;;;;;;;3.90;3.13;;;;;;;37.72;22.50;93653.88;5030678;28;20033;-42
2022/06/17 09:29:23;;;;;;;3.55;2.70;;;;;;;38.30;21.58;93659.34;5029684;28;20039;-42
2022/06/17 09:31:52;;;;;;;2.90;2.70;;;;;;;38.45;20.96;93657.78;5010592;28;20034;-41
2022/06/17 09:34:28;;;;;;;3.63;3.15;;;;;;;37.38;20.92;93657.63;5010501;28;20084;-43
2022/06/17 09:37:04;;;;;;;3.22;2.97;;;;;;;38.17;20.46;93657.97;5011534;28;20029;-42
2022/06/17 09:39:41;;;;;;;2.67;2.47;;;;;;;38.77;20.74;93659.69;5027286;28;20040;-44
2022/06/17 09:42:33;;;;;;;2.70;2.50;;;;;;;38.23;20.27;93657.19;5010465;28;20034;-45
2022/06/17 09:45:14;;;;;;;2.97;2.38;;;;;;;37.97;19.75;93650.16;4995268;28;20519;-43
2022/06/17 09:47:50;;;;;;;4.90;2.83;;;;;;;37.29;21.38;93655.47;5010587;28;20037;-42
2022/06/17 09:50:19;;;;;;;4.38;2.95;;;;;;;37.99;23.15;93655.19;5011441;28;20065;-42
2022/06/17 09:52:52;;;;;;;5.97;2.47;;;;;;;38.35;21.10;93651.38;5022251;28;20029;-40
2022/06/17 09:55:25;;;;;;;6.07;2.72;;;;;;;38.68;20.17;93653.28;5014244;28;20083;-40
2022/06/17 09:58:34;;;;;;;3.15;2.70;;;;;;;37.45;20.06;93658.31;5011326;28;20471;-41
2022/06/17 10:01:01;;;;;;;4.40;2.75;;;;;;;37.13;21.98;93648.31;5008344;28;20046;-40
2022/06/17 10:03:32;;;;;;;3.30;2.63;;;;;;;37.80;20.61;93645.19;5009800;28;20060;-40
2022/06/17 10:06:35;;;;;;;13.50;2.72;;;;;;;38.34;20.22;93649.94;5011088;28;20037;-40
2022/06/17 10:09:01;;;;;;;4.55;2.70;;;;;;;38.62;19.84;93644.66;5009895;28;20034;-40
2022/06/17 10:11:57;;;;;;;7.13;2.70;;;;;;;39.17;19.63;93647.78;5010998;28;20041;-40
2022/06/17 10:14:44;;;;;;;2.53;2.33;;;;;;;39.37;19.72;93647.53;5042018;28;20029;-40
2022/06/17 10:20:35;;;;;;;2.75;2.42;;;;;;;39.85;19.11;93640.47;5021282;28;20048;-40
2022/06/17 10:23:21;;;;;;;3.05;2.40;;;;;;;39.52;19.18;93645.22;5028337;28;20033;-40
2022/06/17 10:26:06;;;;;;;2.92;2.45;;;;;;;39.44;18.31;93638.81;5028810;28;20521;-39
2022/06/17 10:29:04;;;;;;;11.93;2.70;;;;;;;39.73;18.55;93637.03;5025115;28;20462;-40
2022/06/17 10:31:37;;;;;;;2.78;2.58;;;;;;;40.09;18.30;93639.44;5029267;28;20071;-40
2022/06/17 10:34:07;;;;;;;3.67;2.60;;;;;;;40.11;19.31;93625.66;5029521;28;20111;-40
2022/06/17 10:36:32;;;;;;;2.50;2.30;;;;;;;40.11;19.10;93634.34;5028981;28;20029;-40
2022/06/17 10:39:00;;;;;;;2.85;2.65;;;;;;;40.35;20.03;93635.44;5030690;28;20036;-40
2022/06/17 10:41:26;;;;;;;3.20;2.90;;;;;;;40.26;18.86;93626.19;5028627;28;20025;-40
2022/06/17 10:43:52;;;;;;;4.70;3.35;;;;;;;39.41;20.11;93635.22;5028590;28;20026;-41
2022/06/17 10:46:28;;;;;;;4.05;3.60;;;;;;;39.60;19.98;93624.91;5029146;28;20399;-41
2022/06/17 10:49:02;;;;;;;3.03;2.83;;;;;;;39.61;21.59;93629.25;5030237;28;20118;-40
2022/06/17 10:51:28;;;;;;;4.18;3.08;;;;;;;39.51;21.45;93632.22;5030470;28;20068;-40
2022/06/17 10:53:59;;;;;;;8.55;3.45;;;;;;;38.90;20.72;93631.44;5028373;28;20077;-40
2022/06/17 10:56:36;;;;;;;6.68;3.47;;;;;;;38.81;21.39;93624.31;5028644;28;20132;-40
2022/06/17 10:59:07;;;;;;;9.63;4.07;;;;;;;38.16;20.88;93618.31;5029826;28;20029;-41
2022/06/17 11:01:45;;;;;;;6.40;3.78;;;;;;;36.37;23.76;93616.72;5025113;28;20411;-40
2022/06/17 11:04:25;;;;;;;6.65;3.72;;;;;;;34.98;25.22;93622.75;5018659;28;20071;-40
2022/06/17 11:07:21;;;;;;;4.00;3.70;;;;;;;34.08;26.48;93631.44;5022863;28;20123;-41
2022/06/17 11:09:54;;;;;;;5.25;4.05;;;;;;;34.02;27.84;93624.94;5024380;28;20029;-40
2022/06/17 11:12:24;;;;;;;4.78;3.90;;;;;;;33.98;27.60;93624.88;5024148;28;20031;-40
2022/06/17 11:15:03;;;;;;;4.28;3.90;;;;;;;33.62;27.12;93622.34;5028179;28;20185;-40
2022/06/17 11:17:41;;;;;;;4.55;4.15;;;;;;;33.80;26.18;93627.56;5029577;28;20423;-40
2022/06/17 11:20:16;;;;;;;4.85;4.35;;;;;;;33.13;28.67;93620.34;5025231;28;20142;-40
2022/06/17 11:22:53;;;;;;;10.38;4.40;;;;;;;32.16;29.95;93616.06;5029141;28;20048;-40
2022/06/17 11:25:22;;;;;;;6.22;4.68;;;;;;;31.35;31.39;93622.41;5028523;28;20025;-40
2022/06/17 11:27:58;;;;;;;;;;;;;;;30.46;33.76;93626.25;5031470;28;20508;-40
2022/06/17 11:30:30;;;;;;;7.57;5.53;;;;;;;29.77;34.71;93629.53;5030034;28;20334;-39
2022/06/17 11:32:57;;;;;;;6.55;5.22;;;;;;;29.39;36.09;93619.25;5031467;28;20127;-40
2022/06/17 11:35:38;;;;;;;5.50;4.88;;;;;;;29.05;36.14;93619.00;5030119;28;20100;-40
2022/06/17 11:38:13;;;;;;;8.80;5.57;;;;;;;28.82;36.25;93606.28;5021879;28;20098;-40
2022/06/17 11:40:51;;;;;;;10.50;5.80;;;;;;;28.79;37.13;93606.88;5031830;28;20030;-40
2022/06/17 11:43:42;;;;;;;7.40;5.47;;;;;;;29.14;38.32;93592.97;5009613;28;20060;-39
2022/06/17 11:46:14;;;;;;;6.13;5.05;;;;;;;28.91;35.38;93595.88;5025674;28;20040;-40
2022/06/17 11:48:45;;;;;;;8.15;5.95;;;;;;;28.74;37.30;93591.84;5010998;28;20056;-40
2022/06/17 11:51:25;;;;;;;7.80;5.80;;;;;;;28.47;37.38;93590.34;5011831;28;20487;-39
2022/06/17 11:53:53;;;;;;;5.82;5.20;;;;;;;27.72;37.19;93567.38;5029516;28;20438;-39
2022/06/17 11:56:33;;;;;;;7.68;6.05;;;;;;;27.67;38.45;93590.63;5030386;28;20024;-39
2022/06/17 11:59:08;;;;;;;6.35;5.72;;;;;;;27.25;38.89;93583.50;5030391;28;20075;-40
2022/06/17 12:01:34;;;;;;;12.13;6.05;;;;;;;26.89;39.06;93589.38;5030402;28;20032;-39
2022/06/17 12:04:00;;;;;;;6.68;5.55;;;;;;;26.61;40.25;93599.66;5029011;28;20030;-39